Time;durP1;ratioP1;P1;durP2;ratioP2;P2;SDS_P1;SDS_P2;PMS_P1;PMS_P2;Temp;Humidity;BMP_temperature;BMP_pressure;BME280_temperature;BME280_humidity;BME280_pressure;Samples;Min_cycle;Max_cycle;Signal;HPM_P1;HPM_P2
2021/06/14 00:00:20;;;;;;;17.13;14.95;;;;;;;;;;7025120;28;20556;-86
2021/06/14 00:03:41;;;;;;;17.42;14.20;;;;;;;;;;7025369;28;20044;-87
2021/06/14 00:07:02;;;;;;;20.65;16.55;;;;;;;;;;7025883;28;20101;-86
2021/06/14 00:10:25;;;;;;;18.23;15.95;;;;;;;;;;7025957;28;20066;-86
2021/06/14 00:13:45;;;;;;;18.00;14.23;;;;;;;;;;7025606;28;20177;-86
2021/06/14 00:17:06;;;;;;;19.73;15.45;;;;;;;;;;7053960;28;20047;-86
2021/06/14 00:20:26;;;;;;;18.40;15.57;;;;;;;;;;7042140;28;20067;-86
2021/06/14 00:23:47;;;;;;;16.60;14.93;;;;;;;;;;7039873;28;20626;-86
2021/06/14 00:27:08;;;;;;;16.73;14.85;;;;;;;;;;7024175;28;20508;-87
2021/06/14 00:30:32;;;;;;;21.80;15.88;;;;;;;;;;7024220;28;20052;-86
2021/06/14 00:33:52;;;;;;;19.38;15.05;;;;;;;;;;7024527;28;20044;-85
2021/06/14 00:37:13;;;;;;;23.77;15.82;;;;;;;;;;7026580;28;20160;-85
2021/06/14 00:40:33;;;;;;;26.30;16.45;;;;;;;;;;7025634;28;20090;-85
2021/06/14 00:43:54;;;;;;;17.75;15.90;;;;;;;;;;7026185;28;20178;-85
2021/06/14 00:47:14;;;;;;;19.90;16.52;;;;;;;;;;7025808;28;20127;-85
2021/06/14 00:50:45;;;;;;;19.55;17.02;;;;;;;;;;7025713;28;20056;-86
2021/06/14 00:54:06;;;;;;;18.33;16.42;;;;;;;;;;7025435;28;20098;-86
2021/06/14 00:57:26;;;;;;;20.00;15.88;;;;;;;;;;7028382;28;20070;-85
2021/06/14 01:00:47;;;;;;;17.35;15.55;;;;;;;;;;7034182;28;20044;-86
2021/06/14 01:04:07;;;;;;;19.98;16.08;;;;;;;;;;7040005;28;20070;-86
2021/06/14 01:07:28;;;;;;;21.35;15.73;;;;;;;;;;7025563;28;20161;-85
2021/06/14 01:10:49;;;;;;;17.40;14.48;;;;;;;;;;7039601;28;20055;-85
2021/06/14 01:14:25;;;;;;;21.80;15.02;;;;;;;;;;7024692;28;20048;-84
2021/06/14 01:17:54;;;;;;;17.17;14.90;;;;;;;;;;7025223;28;20489;-84
2021/06/14 01:21:25;;;;;;;21.48;15.15;;;;;;;;;;7025286;28;20144;-85
2021/06/14 01:24:50;;;;;;;19.77;15.40;;;;;;;;;;7034339;22;20036;-85
2021/06/14 01:28:13;;;;;;;20.02;14.43;;;;;;;;;;7048681;28;20497;-85
2021/06/14 01:31:35;;;;;;;19.20;15.85;;;;;;;;;;7037549;28;20040;-84
2021/06/14 01:34:56;;;;;;;16.73;15.02;;;;;;;;;;7012662;28;20044;-84
2021/06/14 01:38:18;;;;;;;18.77;14.25;;;;;;;;;;7046087;28;20043;-84
2021/06/14 01:41:39;;;;;;;17.88;14.80;;;;;;;;;;7052593;28;20405;-84
2021/06/14 01:45:00;;;;;;;17.10;14.38;;;;;;;;;;7036980;28;20079;-84
2021/06/14 01:48:22;;;;;;;17.00;13.98;;;;;;;;;;7025915;28;20052;-84
2021/06/14 01:51:42;;;;;;;15.18;13.63;;;;;;;;;;7051481;28;20485;-84
2021/06/14 01:55:03;;;;;;;15.75;13.15;;;;;;;;;;7048832;28;20112;-84
2021/06/14 01:58:24;;;;;;;15.07;13.52;;;;;;;;;;7050055;28;20165;-83
2021/06/14 02:01:46;;;;;;;13.95;12.50;;;;;;;;;;7050549;28;20055;-83
2021/06/14 02:05:07;;;;;;;21.13;13.32;;;;;;;;;;7050501;28;20043;-83
2021/06/14 02:08:28;;;;;;;19.90;13.65;;;;;;;;;;7042210;28;20056;-84
2021/06/14 02:11:51;;;;;;;15.85;13.95;;;;;;;;;;7050975;28;20518;-84
2021/06/14 02:15:13;;;;;;;15.52;12.90;;;;;;;;;;7050620;28;20134;-84
2021/06/14 02:18:33;;;;;;;15.55;13.18;;;;;;;;;;7049947;28;20480;-84
2021/06/14 02:21:53;;;;;;;16.55;12.82;;;;;;;;;;7052352;28;20058;-84
2021/06/14 02:25:14;;;;;;;22.45;12.93;;;;;;;;;;7050880;28;20062;-85
2021/06/14 02:28:36;;;;;;;16.55;12.88;;;;;;;;;;7050884;28;20051;-84
2021/06/14 02:31:57;;;;;;;19.58;13.20;;;;;;;;;;7049963;28;20524;-84
2021/06/14 02:35:19;;;;;;;17.92;13.40;;;;;;;;;;7043100;28;20093;-84
2021/06/14 02:38:40;;;;;;;13.48;12.07;;;;;;;;;;7036753;28;20382;-83
2021/06/14 02:42:01;;;;;;;15.88;12.75;;;;;;;;;;7050113;28;20497;-84
2021/06/14 02:45:24;;;;;;;17.60;12.88;;;;;;;;;;7051621;28;20143;-83
2021/06/14 02:48:46;;;;;;;14.35;11.95;;;;;;;;;;7049965;28;20056;-84
2021/06/14 02:52:12;;;;;;;14.77;13.15;;;;;;;;;;7050514;28;20051;-86
2021/06/14 02:55:35;;;;;;;15.68;13.05;;;;;;;;;;7043421;28;20050;-84
2021/06/14 02:58:55;;;;;;;14.38;12.40;;;;;;;;;;7047169;28;20146;-85
2021/06/14 03:02:16;;;;;;;13.93;12.20;;;;;;;;;;7051484;28;20035;-85
2021/06/14 03:05:36;;;;;;;15.82;13.13;;;;;;;;;;7049881;28;20097;-85
2021/06/14 03:08:57;;;;;;;15.13;11.40;;;;;;;;;;7035059;28;20039;-85
2021/06/14 03:12:19;;;;;;;16.95;12.95;;;;;;;;;;7047510;28;20071;-86
2021/06/14 03:15:40;;;;;;;15.00;11.20;;;;;;;;;;7035251;28;20385;-85
2021/06/14 03:19:02;;;;;;;14.02;11.15;;;;;;;;;;7039303;28;20051;-85
2021/06/14 03:22:22;;;;;;;12.07;10.00;;;;;;;;;;7047665;28;20044;-86
2021/06/14 03:25:43;;;;;;;11.43;9.85;;;;;;;;;;7025608;28;20048;-85
2021/06/14 03:29:05;;;;;;;15.15;10.15;;;;;;;;;;7053192;28;20131;-85
2021/06/14 03:32:26;;;;;;;12.57;10.65;;;;;;;;;;7054368;28;20097;-85
2021/06/14 03:35:47;;;;;;;13.55;9.77;;;;;;;;;;7038762;28;20040;-84
2021/06/14 03:39:08;;;;;;;10.85;9.73;;;;;;;;;;7030548;28;20032;-84
2021/06/14 03:42:30;;;;;;;11.20;9.93;;;;;;;;;;7036606;28;20059;-84
2021/06/14 03:45:51;;;;;;;13.07;9.52;;;;;;;;;;7055446;28;20529;-85
2021/06/14 03:49:12;;;;;;;10.50;9.43;;;;;;;;;;7068466;27;20043;-84
2021/06/14 03:52:32;;;;;;;17.77;8.90;;;;;;;;;;7039482;28;20082;-84
2021/06/14 03:55:53;;;;;;;11.77;9.82;;;;;;;;;;7053576;28;20508;-85
2021/06/14 03:59:13;;;;;;;17.02;9.98;;;;;;;;;;7046441;28;20224;-86
2021/06/14 04:02:33;;;;;;;10.70;9.60;;;;;;;;;;7055020;28;20052;-84
2021/06/14 04:05:59;;;;;;;10.27;9.23;;;;;;;;;;7047417;28;20111;-85
2021/06/14 04:09:19;;;;;;;11.10;9.93;;;;;;;;;;7028839;28;20043;-84
2021/06/14 04:12:40;;;;;;;11.20;9.15;;;;;;;;;;7047079;28;20048;-84
2021/06/14 04:16:00;;;;;;;13.98;10.15;;;;;;;;;;7032473;28;20047;-84
2021/06/14 04:19:21;;;;;;;11.88;9.75;;;;;;;;;;7053800;28;20138;-83
2021/06/14 04:22:41;;;;;;;13.43;9.02;;;;;;;;;;7040296;28;20075;-85
2021/06/14 04:26:02;;;;;;;10.63;9.50;;;;;;;;;;7055209;28;20063;-84
2021/06/14 04:29:22;;;;;;;11.20;10.00;;;;;;;;;;7047509;28;20047;-83
2021/06/14 04:32:44;;;;;;;13.27;9.40;;;;;;;;;;7043201;28;20039;-83
2021/06/14 04:36:05;;;;;;;14.10;9.18;;;;;;;;;;7054727;28;20035;-83
2021/06/14 04:39:25;;;;;;;10.68;9.57;;;;;;;;;;7020689;28;20082;-83
2021/06/14 04:42:46;;;;;;;11.55;9.45;;;;;;;;;;7040667;28;20043;-81
2021/06/14 04:46:06;;;;;;;13.35;8.38;;;;;;;;;;7038020;28;20510;-79
2021/06/14 04:49:26;;;;;;;19.88;7.10;;;;;;;;;;7042036;28;20067;-80
2021/06/14 04:52:47;;;;;;;13.57;6.47;;;;;;;;;;7052602;28;20434;-79
2021/06/14 04:56:08;;;;;;;10.80;6.25;;;;;;;;;;7041826;28;20046;-79
2021/06/14 04:59:28;;;;;;;9.25;6.18;;;;;;;;;;7035653;28;20108;-80
2021/06/14 05:02:50;;;;;;;11.70;5.80;;;;;;;;;;7042195;28;20481;-79
2021/06/14 05:06:11;;;;;;;8.00;5.00;;;;;;;;;;7047720;28;20134;-78
2021/06/14 05:09:31;;;;;;;9.52;4.72;;;;;;;;;;7052842;28;20044;-78
2021/06/14 05:12:52;;;;;;;8.15;4.82;;;;;;;;;;7037869;28;20481;-79
2021/06/14 05:16:12;;;;;;;8.73;4.63;;;;;;;;;;7023783;28;20128;-79
2021/06/14 05:19:33;;;;;;;9.35;4.43;;;;;;;;;;7039976;28;20044;-79
2021/06/14 05:22:53;;;;;;;6.22;4.55;;;;;;;;;;7027270;28;20044;-78
2021/06/14 05:26:13;;;;;;;8.05;4.68;;;;;;;;;;7045909;28;20142;-79
2021/06/14 05:29:34;;;;;;;11.68;4.85;;;;;;;;;;7025455;28;20044;-80
2021/06/14 05:32:54;;;;;;;9.93;4.63;;;;;;;;;;7047047;28;20595;-82
2021/06/14 05:36:15;;;;;;;10.20;5.25;;;;;;;;;;7023915;28;20043;-81
2021/06/14 05:39:35;;;;;;;7.10;5.10;;;;;;;;;;7038007;28;20146;-81
2021/06/14 05:42:56;;;;;;;8.18;4.82;;;;;;;;;;7039687;28;20119;-82
2021/06/14 05:46:16;;;;;;;10.02;6.43;;;;;;;;;;7052923;28;20086;-83
2021/06/14 05:49:37;;;;;;;7.10;6.38;;;;;;;;;;7067764;27;20040;-82
2021/06/14 05:52:57;;;;;;;6.40;5.90;;;;;;;;;;7039010;28;20054;-81
2021/06/14 05:56:18;;;;;;;8.23;4.20;;;;;;;;;;7037948;28;20086;-81
2021/06/14 05:59:38;;;;;;;5.25;3.92;;;;;;;;;;7037494;28;20052;-78
2021/06/14 06:02:59;;;;;;;4.72;4.20;;;;;;;;;;7049927;28;20039;-77
2021/06/14 06:06:19;;;;;;;4.40;4.00;;;;;;;;;;7025091;28;20078;-78
2021/06/14 06:09:40;;;;;;;5.50;4.13;;;;;;;;;;7023988;28;20043;-80
2021/06/14 06:13:01;;;;;;;11.25;4.35;;;;;;;;;;7037348;28;20473;-81
2021/06/14 06:16:21;;;;;;;6.95;4.15;;;;;;;;;;7016784;28;20048;-82
2021/06/14 06:19:46;;;;;;;6.43;3.97;;;;;;;;;;7030232;28;20060;-84
2021/06/14 06:23:06;;;;;;;8.63;4.47;;;;;;;;;;7044544;28;20043;-82
2021/06/14 06:26:27;;;;;;;4.15;3.30;;;;;;;;;;7029605;28;20075;-82
2021/06/14 06:29:47;;;;;;;5.78;3.90;;;;;;;;;;7023332;28;20044;-82
2021/06/14 06:33:10;;;;;;;5.20;3.97;;;;;;;;;;7032515;28;20143;-79
2021/06/14 06:36:31;;;;;;;6.18;3.60;;;;;;;;;;7038120;28;20043;-79
2021/06/14 06:39:51;;;;;;;4.18;3.75;;;;;;;;;;7049218;28;20035;-78
2021/06/14 06:43:12;;;;;;;3.83;3.53;;;;;;;;;;7033854;28;20043;-79
2021/06/14 06:46:32;;;;;;;3.97;3.40;;;;;;;;;;7025607;28;20389;-79
2021/06/14 06:49:59;;;;;;;5.60;3.50;;;;;;;;;;7018346;28;20094;-81
2021/06/14 06:53:20;;;;;;;4.00;3.40;;;;;;;;;;7031775;28;20062;-80
2021/06/14 06:56:51;;;;;;;5.45;3.53;;;;;;;;;;7021040;28;20383;-79
2021/06/14 07:00:15;;;;;;;6.43;3.20;;;;;;;;;;7022660;28;20047;-80
2021/06/14 07:03:36;;;;;;;11.27;3.13;;;;;;;;;;7030862;28;20493;-80
2021/06/14 07:06:56;;;;;;;3.20;2.90;;;;;;;;;;7053835;28;20051;-80
2021/06/14 07:10:17;;;;;;;3.88;3.13;;;;;;;;;;7028346;28;20052;-80
2021/06/14 07:13:38;;;;;;;5.00;3.40;;;;;;;;;;7028244;28;20544;-80
2021/06/14 07:16:58;;;;;;;4.75;3.55;;;;;;;;;;7028162;28;20048;-82
2021/06/14 07:20:18;;;;;;;4.07;3.30;;;;;;;;;;7041234;28;20138;-80
2021/06/14 07:23:39;;;;;;;4.47;3.45;;;;;;;;;;7027033;28;20047;-80
2021/06/14 07:27:00;;;;;;;4.65;3.40;;;;;;;;;;7042043;28;20046;-80
2021/06/14 07:30:22;;;;;;;3.72;2.92;;;;;;;;;;7031445;28;20417;-81
2021/06/14 07:33:42;;;;;;;5.63;3.35;;;;;;;;;;7042346;28;20039;-81
2021/06/14 07:37:03;;;;;;;3.47;3.00;;;;;;;;;;7047967;28;20048;-79
2021/06/14 07:40:23;;;;;;;3.42;3.10;;;;;;;;;;7039410;28;20047;-80
2021/06/14 07:43:44;;;;;;;6.10;3.13;;;;;;;;;;7045306;28;20105;-80
2021/06/14 07:47:05;;;;;;;3.45;3.15;;;;;;;;;;7013168;28;20048;-81
2021/06/14 07:50:25;;;;;;;3.45;3.00;;;;;;;;;;7026803;28;20055;-80
2021/06/14 07:53:49;;;;;;;3.42;2.90;;;;;;;;;;7025304;28;20393;-81
2021/06/14 07:57:10;;;;;;;3.15;2.90;;;;;;;;;;7031849;28;20032;-81
2021/06/14 08:00:30;;;;;;;5.75;3.28;;;;;;;;;;7046260;28;20082;-81
2021/06/14 08:03:52;;;;;;;2.72;2.50;;;;;;;;;;7046970;28;20438;-80
2021/06/14 08:07:13;;;;;;;3.70;3.03;;;;;;;;;;7035312;28;20122;-81
2021/06/14 08:10:33;;;;;;;4.18;2.90;;;;;;;;;;7033678;28;20055;-79
2021/06/14 08:13:54;;;;;;;2.90;2.60;;;;;;;;;;7042054;28;20059;-80
2021/06/14 08:17:14;;;;;;;4.85;3.50;;;;;;;;;;7042736;28;20050;-83
2021/06/14 08:20:41;;;;;;;12.32;3.35;;;;;;;;;;7045622;28;20553;-80
2021/06/14 08:27:46;;;;;;;9.88;3.03;;;;;;;;;;7042332;28;20056;-79
2021/06/14 08:31:06;;;;;;;4.32;2.53;;;;;;;;;;7038194;28;20047;-79
2021/06/14 08:34:27;;;;;;;5.90;2.60;;;;;;;;;;7040457;28;20071;-80
2021/06/14 08:37:48;;;;;;;3.95;3.10;;;;;;;;;;7028893;28;20040;-80
2021/06/14 08:41:09;;;;;;;10.40;3.17;;;;;;;;;;7024361;28;20090;-79
2021/06/14 08:44:31;;;;;;;4.32;2.80;;;;;;;;;;7036903;28;20035;-78
2021/06/14 08:47:52;;;;;;;9.65;3.40;;;;;;;;;;7036159;28;20545;-79
2021/06/14 08:51:13;;;;;;;6.00;2.78;;;;;;;;;;7028010;28;20039;-80
2021/06/14 08:54:37;;;;;;;8.57;3.20;;;;;;;;;;7039171;28;20053;-82
2021/06/14 08:57:58;;;;;;;7.80;3.75;;;;;;;;;;7027684;28;20094;-80
2021/06/14 09:01:18;;;;;;;5.55;3.20;;;;;;;;;;7035208;28;20467;-83
2021/06/14 09:04:39;;;;;;;11.07;2.78;;;;;;;;;;7034440;28;20076;-83
2021/06/14 09:08:05;;;;;;;6.40;2.42;;;;;;;;;;7040470;28;20044;-82
2021/06/14 09:11:27;;;;;;;6.63;2.70;;;;;;;;;;7044958;28;20043;-84
2021/06/14 09:14:48;;;;;;;5.82;2.70;;;;;;;;;;7024292;28;20040;-83
2021/06/14 09:18:22;;;;;;;6.70;3.47;;;;;;;;;;7038359;28;20047;-82
2021/06/14 09:21:42;;;;;;;6.85;3.17;;;;;;;;;;7046297;28;20054;-83
2021/06/14 09:25:07;;;;;;;5.70;2.72;;;;;;;;;;7036203;28;20139;-81
2021/06/14 09:28:27;;;;;;;3.67;2.63;;;;;;;;;;7041743;28;20051;-81
2021/06/14 09:31:51;;;;;;;7.88;3.22;;;;;;;;;;7038789;28;20044;-79
2021/06/14 09:35:16;;;;;;;6.85;3.13;;;;;;;;;;7035214;28;20048;-79
2021/06/14 09:38:36;;;;;;;6.35;3.38;;;;;;;;;;7032934;28;20481;-78
2021/06/14 09:41:56;;;;;;;5.05;2.60;;;;;;;;;;7028476;28;20050;-79
2021/06/14 09:45:22;;;;;;;3.75;2.90;;;;;;;;;;7032247;28;20040;-80
2021/06/14 09:48:42;;;;;;;4.70;2.72;;;;;;;;;;7033211;28;20127;-79
2021/06/14 09:52:04;;;;;;;3.22;2.58;;;;;;;;;;7038517;28;20066;-81
2021/06/14 09:55:28;;;;;;;2.25;2.05;;;;;;;;;;7039961;28;20501;-80
2021/06/14 09:58:59;;;;;;;4.72;2.70;;;;;;;;;;7036760;28;20392;-80
2021/06/14 10:02:19;;;;;;;3.85;2.28;;;;;;;;;;7029743;28;20040;-83
2021/06/14 10:05:48;;;;;;;2.88;2.28;;;;;;;;;;7035355;28;20052;-82
2021/06/14 10:09:16;;;;;;;3.85;2.25;;;;;;;;;;7030416;28;20507;-81
2021/06/14 10:12:38;;;;;;;4.55;2.33;;;;;;;;;;7026617;28;20071;-82
2021/06/14 10:16:23;;;;;;;9.02;2.70;;;;;;;;;;7045037;28;20051;-83
2021/06/14 10:19:43;;;;;;;4.93;2.45;;;;;;;;;;7023985;28;20108;-79
2021/06/14 10:23:04;;;;;;;6.18;2.67;;;;;;;;;;7030856;28;20423;-79
2021/06/14 10:26:27;;;;;;;6.28;2.92;;;;;;;;;;7032713;28;20438;-80
2021/06/14 10:29:47;;;;;;;6.43;2.90;;;;;;;;;;7027114;28;20048;-81
2021/06/14 10:33:08;;;;;;;18.00;3.30;;;;;;;;;;7036409;28;20048;-81
2021/06/14 10:36:29;;;;;;;6.15;2.85;;;;;;;;;;7049763;28;20048;-79
2021/06/14 10:39:54;;;;;;;7.32;2.78;;;;;;;;;;7031485;28;20134;-80
2021/06/14 10:43:15;;;;;;;4.75;2.30;;;;;;;;;;7044444;28;20097;-80
2021/06/14 10:46:36;;;;;;;12.05;3.72;;;;;;;;;;7056095;28;20400;-82
2021/06/14 10:49:57;;;;;;;6.72;3.50;;;;;;;;;;7040867;28;20138;-81
2021/06/14 10:53:28;;;;;;;10.55;3.28;;;;;;;;;;7028158;28;20044;-81
2021/06/14 10:56:49;;;;;;;12.45;3.97;;;;;;;;;;7032719;28;20481;-81
2021/06/14 11:00:21;;;;;;;8.35;2.70;;;;;;;;;;7036439;28;20058;-83
2021/06/14 11:03:46;;;;;;;5.60;2.80;;;;;;;;;;7048152;28;20423;-81
2021/06/14 11:07:07;;;;;;;4.13;2.70;;;;;;;;;;7041996;28;20076;-82
2021/06/14 11:10:30;;;;;;;9.65;2.60;;;;;;;;;;7038388;28;20064;-81
2021/06/14 11:13:52;;;;;;;9.20;3.25;;;;;;;;;;7029727;28;20044;-84
2021/06/14 11:17:26;;;;;;;10.88;2.80;;;;;;;;;;7037040;28;20460;-84
2021/06/14 11:20:46;;;;;;;8.45;2.50;;;;;;;;;;7048476;28;20134;-83
2021/06/14 11:24:11;;;;;;;9.65;3.35;;;;;;;;;;7031599;28;20059;-84
2021/06/14 11:27:39;;;;;;;16.52;2.88;;;;;;;;;;7037780;28;20511;-82
2021/06/14 11:31:01;;;;;;;6.90;2.72;;;;;;;;;;7041322;28;20052;-82
2021/06/14 11:34:21;;;;;;;7.65;2.72;;;;;;;;;;7035161;28;20067;-81
2021/06/14 11:37:49;;;;;;;4.22;2.40;;;;;;;;;;7052955;28;20071;-82
2021/06/14 11:41:10;;;;;;;5.17;2.40;;;;;;;;;;7048113;28;20512;-82
2021/06/14 11:44:32;;;;;;;6.15;2.53;;;;;;;;;;7029906;28;20044;-81
2021/06/14 11:47:53;;;;;;;9.45;2.60;;;;;;;;;;7025993;28;20055;-81
2021/06/14 11:51:18;;;;;;;7.75;2.88;;;;;;;;;;7041758;28;20052;-81
2021/06/14 11:54:39;;;;;;;7.03;2.55;;;;;;;;;;7040373;28;20052;-80
2021/06/14 11:58:03;;;;;;;4.88;2.60;;;;;;;;;;7030670;28;20055;-81
2021/06/14 12:01:30;;;;;;;14.13;3.00;;;;;;;;;;7027230;28;20131;-80
2021/06/14 12:04:56;;;;;;;5.53;2.10;;;;;;;;;;7025430;28;20047;-80
2021/06/14 12:08:21;;;;;;;11.60;2.72;;;;;;;;;;7027748;28;20135;-80
2021/06/14 12:11:42;;;;;;;9.25;2.42;;;;;;;;;;7052460;28;20044;-82
2021/06/14 12:15:05;;;;;;;5.35;2.38;;;;;;;;;;7029776;28;20906;-81
2021/06/14 12:18:27;;;;;;;7.60;2.85;;;;;;;;;;7038595;28;20044;-80
2021/06/14 12:21:57;;;;;;;8.13;2.70;;;;;;;;;;7038108;28;20057;-80
2021/06/14 12:25:18;;;;;;;5.00;2.22;;;;;;;;;;7043153;28;20495;-80
2021/06/14 12:28:40;;;;;;;11.13;2.60;;;;;;;;;;7043129;28;20481;-83
2021/06/14 12:32:05;;;;;;;4.85;2.08;;;;;;;;;;7032072;28;20095;-82
2021/06/14 12:35:26;;;;;;;5.30;2.50;;;;;;;;;;7051930;28;20096;-81
2021/06/14 12:38:52;;;;;;;3.83;2.25;;;;;;;;;;7036564;28;20040;-80
2021/06/14 12:42:17;;;;;;;7.35;2.28;;;;;;;;;;7042503;28;20136;-83
2021/06/14 12:45:38;;;;;;;8.43;2.75;;;;;;;;;;7040469;28;20052;-84
2021/06/14 12:48:59;;;;;;;6.80;2.58;;;;;;;;;;7037907;28;20455;-84
2021/06/14 12:52:22;;;;;;;7.03;2.90;;;;;;;;;;7053314;28;20485;-85
2021/06/14 12:55:42;;;;;;;4.32;2.45;;;;;;;;;;7038203;28;20389;-84
2021/06/14 12:59:03;;;;;;;4.90;2.10;;;;;;;;;;7050656;28;20485;-84
2021/06/14 13:02:23;;;;;;;5.70;2.38;;;;;;;;;;7048106;28;20355;-84
2021/06/14 13:05:46;;;;;;;7.57;2.42;;;;;;;;;;7050146;28;20058;-86
2021/06/14 13:09:08;;;;;;;5.80;2.58;;;;;;;;;;7045804;28;20185;-82
2021/06/14 13:12:29;;;;;;;4.22;2.20;;;;;;;;;;7041903;28;20146;-85
2021/06/14 13:16:06;;;;;;;4.25;2.35;;;;;;;;;;7049933;28;20039;-84
2021/06/14 13:19:28;;;;;;;5.32;2.60;;;;;;;;;;7047665;28;20066;-84
2021/06/14 13:22:49;;;;;;;6.63;2.80;;;;;;;;;;7031972;28;20520;-81
2021/06/14 13:26:09;;;;;;;6.07;2.95;;;;;;;;;;7011425;22;20060;-82
2021/06/14 13:29:30;;;;;;;5.00;2.75;;;;;;;;;;6962881;28;20084;-86
2021/06/14 13:33:15;;;;;;;3.92;2.63;;;;;;;;;;6963129;28;20601;-84
2021/06/14 13:36:43;;;;;;;8.55;2.70;;;;;;;;;;6955508;28;20072;-84
2021/06/14 13:40:12;;;;;;;5.18;2.47;;;;;;;;;;6967833;28;20048;-84
2021/06/14 13:43:35;;;;;;;5.40;2.42;;;;;;;;;;6955527;28;20037;-85
2021/06/14 13:46:56;;;;;;;6.10;2.53;;;;;;;;;;6965209;28;20053;-85
2021/06/14 13:50:16;;;;;;;5.68;2.63;;;;;;;;;;6965893;28;20387;-85
2021/06/14 13:53:49;;;;;;;6.10;2.47;;;;;;;;;;6955597;28;20486;-85
2021/06/14 13:57:13;;;;;;;4.40;2.55;;;;;;;;;;6944996;28;20075;-85
2021/06/14 14:00:33;;;;;;;6.80;2.70;;;;;;;;;;6946603;28;20052;-85
2021/06/14 14:04:05;;;;;;;4.55;2.90;;;;;;;;;;6954505;28;20056;-84
2021/06/14 14:07:25;;;;;;;8.20;2.92;;;;;;;;;;6936469;28;20045;-86
2021/06/14 14:10:46;;;;;;;12.20;3.08;;;;;;;;;;6964866;28;20037;-85
2021/06/14 14:14:15;;;;;;;6.18;2.95;;;;;;;;;;6962313;28;20124;-84
2021/06/14 14:17:36;;;;;;;4.15;2.35;;;;;;;;;;6925995;28;20394;-85
2021/06/14 14:20:57;;;;;;;8.02;3.13;;;;;;;;;;6943430;28;20044;-84
2021/06/14 14:24:18;;;;;;;10.25;3.17;;;;;;;;;;6961243;28;20052;-85
2021/06/14 14:27:38;;;;;;;9.20;3.00;;;;;;;;;;6956938;28;20037;-85
2021/06/14 14:30:59;;;;;;;3.80;2.60;;;;;;;;;;6949877;28;20048;-84
2021/06/14 14:34:23;;;;;;;4.97;2.70;;;;;;;;;;6948541;28;20053;-84
2021/06/14 14:37:57;;;;;;;4.13;2.67;;;;;;;;;;6943769;28;20453;-85
2021/06/14 14:41:21;;;;;;;5.72;2.67;;;;;;;;;;6942233;28;20067;-85
2021/06/14 14:44:42;;;;;;;7.18;3.20;;;;;;;;;;6953051;28;20037;-86
2021/06/14 14:48:05;;;;;;;8.30;2.67;;;;;;;;;;6916648;28;20386;-85
2021/06/14 14:51:26;;;;;;;6.00;3.08;;;;;;;;;;6932703;28;20049;-85
2021/06/14 14:54:51;;;;;;;10.65;2.50;;;;;;;;;;6964307;28;20049;-84
2021/06/14 14:58:12;;;;;;;6.10;2.72;;;;;;;;;;6924495;28;20047;-82
2021/06/14 15:01:34;;;;;;;7.15;3.05;;;;;;;;;;6952481;28;20045;-87
2021/06/14 15:04:56;;;;;;;10.02;3.58;;;;;;;;;;6954110;28;20442;-85
2021/06/14 15:08:16;;;;;;;6.97;2.85;;;;;;;;;;6947761;28;20052;-85
2021/06/14 15:11:37;;;;;;;4.72;2.67;;;;;;;;;;6966797;28;20049;-86
2021/06/14 15:14:59;;;;;;;6.95;2.75;;;;;;;;;;6930534;28;20053;-82
2021/06/14 15:18:19;;;;;;;8.23;2.85;;;;;;;;;;6938524;28;20041;-83
2021/06/14 15:21:41;;;;;;;5.10;2.80;;;;;;;;;;6946717;28;20143;-87
2021/06/14 15:25:09;;;;;;;5.68;2.53;;;;;;;;;;6969633;28;20041;-83
2021/06/14 15:28:30;;;;;;;8.80;2.60;;;;;;;;;;6950632;28;20466;-83
2021/06/14 15:31:52;;;;;;;4.38;2.40;;;;;;;;;;6976680;28;20170;-83
2021/06/14 15:35:13;;;;;;;6.30;2.75;;;;;;;;;;6973896;28;20052;-84
2021/06/14 15:38:35;;;;;;;4.80;2.45;;;;;;;;;;6970669;28;20041;-83
2021/06/14 15:41:55;;;;;;;6.45;2.78;;;;;;;;;;6951933;28;20079;-84
2021/06/14 15:45:17;;;;;;;5.55;2.55;;;;;;;;;;6972246;28;20037;-83
2021/06/14 15:48:37;;;;;;;5.82;2.30;;;;;;;;;;6937713;28;20033;-83
2021/06/14 15:52:01;;;;;;;3.35;2.38;;;;;;;;;;6968906;28;20071;-83
2021/06/14 15:55:23;;;;;;;5.78;2.40;;;;;;;;;;6954225;28;20049;-82
2021/06/14 15:58:43;;;;;;;5.38;2.38;;;;;;;;;;6967442;28;20506;-83
2021/06/14 16:02:03;;;;;;;5.68;2.72;;;;;;;;;;6970155;28;20056;-81
2021/06/14 16:05:24;;;;;;;6.63;2.42;;;;;;;;;;6960705;28;20051;-80
2021/06/14 16:08:45;;;;;;;4.85;2.13;;;;;;;;;;6938796;28;20050;-80
2021/06/14 16:12:06;;;;;;;6.88;2.10;;;;;;;;;;6971060;28;20088;-81
2021/06/14 16:15:28;;;;;;;7.28;2.38;;;;;;;;;;6967491;28;20072;-82
2021/06/14 16:18:49;;;;;;;8.07;2.50;;;;;;;;;;6944442;28;20045;-83
2021/06/14 16:22:10;;;;;;;4.63;2.17;;;;;;;;;;6972489;28;20147;-81
2021/06/14 16:25:32;;;;;;;4.35;2.00;;;;;;;;;;6971398;28;20060;-81
2021/06/14 16:28:53;;;;;;;9.40;2.50;;;;;;;;;;6944358;28;20052;-83
2021/06/14 16:32:13;;;;;;;5.47;2.17;;;;;;;;;;6964049;28;20049;-84
2021/06/14 16:35:34;;;;;;;6.10;2.20;;;;;;;;;;6970654;28;20136;-84
2021/06/14 16:38:54;;;;;;;3.83;2.05;;;;;;;;;;6971064;28;20048;-84
2021/06/14 16:42:14;;;;;;;5.82;2.28;;;;;;;;;;6970910;28;20094;-87
2021/06/14 16:45:35;;;;;;;7.68;2.13;;;;;;;;;;6971136;28;20546;-85
2021/06/14 16:48:55;;;;;;;6.88;2.10;;;;;;;;;;6970754;28;20513;-87
2021/06/14 16:52:16;;;;;;;5.53;2.10;;;;;;;;;;6970690;28;20106;-86
2021/06/14 16:55:36;;;;;;;3.03;1.75;;;;;;;;;;6970759;28;20410;-85
2021/06/14 16:58:57;;;;;;;8.05;2.38;;;;;;;;;;6970023;28;20045;-86
2021/06/14 17:02:17;;;;;;;8.77;2.40;;;;;;;;;;6969470;28;20053;-85
2021/06/14 17:05:38;;;;;;;7.38;2.15;;;;;;;;;;6955655;28;20037;-85
2021/06/14 17:08:58;;;;;;;6.97;2.10;;;;;;;;;;6967606;28;20122;-84
2021/06/14 17:12:19;;;;;;;5.72;2.03;;;;;;;;;;6970383;28;20041;-87
2021/06/14 17:15:39;;;;;;;9.40;2.47;;;;;;;;;;6969872;28;20105;-85
2021/06/14 17:19:00;;;;;;;6.60;2.03;;;;;;;;;;6970218;28;20398;-85
2021/06/14 17:22:23;;;;;;;5.38;2.28;;;;;;;;;;6952293;28;20118;-86
2021/06/14 17:25:44;;;;;;;7.18;2.28;;;;;;;;;;6968694;28;20073;-85
2021/06/14 17:29:04;;;;;;;8.18;2.50;;;;;;;;;;6973810;28;20044;-84
2021/06/14 17:32:25;;;;;;;5.75;2.03;;;;;;;;;;6969318;28;20148;-85
2021/06/14 17:35:45;;;;;;;7.72;2.15;;;;;;;;;;6948929;28;20045;-85
2021/06/14 17:39:06;;;;;;;5.60;2.10;;;;;;;;;;6969327;28;20122;-88
2021/06/14 17:42:26;;;;;;;5.43;2.47;;;;;;;;;;6969281;28;20052;-88
2021/06/14 17:45:47;;;;;;;5.47;2.00;;;;;;;;;;6966103;28;20041;-87
2021/06/14 17:49:07;;;;;;;4.57;1.95;;;;;;;;;;6933161;28;20041;-85
2021/06/14 17:52:27;;;;;;;9.20;2.25;;;;;;;;;;6950528;28;20041;-83
2021/06/14 17:55:48;;;;;;;7.07;2.22;;;;;;;;;;6963928;28;20132;-87
2021/06/14 17:59:10;;;;;;;7.47;2.30;;;;;;;;;;6947294;28;20052;-86
2021/06/14 18:02:30;;;;;;;12.30;2.60;;;;;;;;;;6961085;28;20081;-86
2021/06/14 18:05:50;;;;;;;5.47;2.45;;;;;;;;;;6951703;28;20060;-86
2021/06/14 18:09:11;;;;;;;7.47;2.45;;;;;;;;;;6969487;28;20506;-86
2021/06/14 18:12:31;;;;;;;6.85;2.17;;;;;;;;;;6969509;28;20132;-85
2021/06/14 18:15:52;;;;;;;3.63;1.90;;;;;;;;;;6966381;28;20064;-85
2021/06/14 18:19:12;;;;;;;6.13;2.28;;;;;;;;;;6965999;28;20131;-86
2021/06/14 18:22:32;;;;;;;14.43;1.98;;;;;;;;;;6944763;28;20051;-88
2021/06/14 18:25:53;;;;;;;6.97;2.20;;;;;;;;;;6930661;28;20076;-86
2021/06/14 18:29:14;;;;;;;5.53;1.98;;;;;;;;;;6957883;28;20108;-86
2021/06/14 18:32:35;;;;;;;14.40;2.17;;;;;;;;;;6955608;28;20147;-87
2021/06/14 18:35:57;;;;;;;4.35;2.63;;;;;;;;;;6968964;28;20523;-85
2021/06/14 18:39:20;;;;;;;5.93;2.22;;;;;;;;;;6936376;28;20467;-85
2021/06/14 18:42:40;;;;;;;5.15;2.03;;;;;;;;;;6954676;28;20037;-85
2021/06/14 18:46:00;;;;;;;3.50;2.10;;;;;;;;;;6949245;28;20163;-84
2021/06/14 18:49:21;;;;;;;7.22;2.17;;;;;;;;;;6968460;28;20134;-86
2021/06/14 18:52:42;;;;;;;4.97;1.90;;;;;;;;;;6949661;28;20048;-88
2021/06/14 18:56:03;;;;;;;14.98;2.60;;;;;;;;;;6957058;28;20046;-84
2021/06/14 18:59:23;;;;;;;13.90;2.38;;;;;;;;;;6967773;28;20103;-82
2021/06/14 19:02:44;;;;;;;7.80;2.45;;;;;;;;;;6968926;28;20406;-83
2021/06/14 19:06:04;;;;;;;13.20;2.30;;;;;;;;;;6964238;28;20049;-81
2021/06/14 19:09:25;;;;;;;9.50;2.80;;;;;;;;;;6967538;28;20520;-82
2021/06/14 19:12:45;;;;;;;12.45;2.63;;;;;;;;;;6972232;28;20061;-83
2021/06/14 19:16:06;;;;;;;10.27;2.70;;;;;;;;;;6940531;28;20056;-84
2021/06/14 19:19:26;;;;;;;10.32;2.55;;;;;;;;;;6972398;28;20115;-82
2021/06/14 19:22:48;;;;;;;12.38;3.13;;;;;;;;;;6964348;28;20120;-84
2021/06/14 19:26:08;;;;;;;6.63;2.80;;;;;;;;;;6972169;28;20091;-82
2021/06/14 19:29:29;;;;;;;5.70;2.55;;;;;;;;;;6952888;28;20107;-83
2021/06/14 19:32:50;;;;;;;6.03;2.22;;;;;;;;;;6963612;28;20045;-83
2021/06/14 19:36:10;;;;;;;4.10;2.08;;;;;;;;;;6953852;28;20450;-83
2021/06/14 19:39:31;;;;;;;4.55;1.77;;;;;;;;;;6958731;28;20086;-83
2021/06/14 19:42:51;;;;;;;9.73;2.67;;;;;;;;;;6944607;28;20445;-83
2021/06/14 19:46:12;;;;;;;7.15;2.47;;;;;;;;;;6953840;28;20064;-81
2021/06/14 19:49:34;;;;;;;4.10;1.88;;;;;;;;;;6959230;28;20052;-82
2021/06/14 19:52:55;;;;;;;4.00;1.90;;;;;;;;;;6958546;28;20072;-81
2021/06/14 21:41:59;;;;;;;10.60;2.08;;;;;;;;;;6938576;28;20049;-85
2021/06/14 21:45:20;;;;;;;18.35;2.20;;;;;;;;;;6944158;28;20068;-85
2021/06/14 21:48:40;;;;;;;9.93;2.22;;;;;;;;;;6941685;28;20429;-86